AGGH

Honiara International Airport

Honiara, Solomon Islands

AGGH 201200Z 00000KT 9999 FEW015 SCT100 BKN300 25/25 Q1010

Observed Flight Rules
Oct-20 @ 12:00 UTC (28 minutes ago)
 
Visual Flight Rules
Wind Visibility Clouds
Calm 10,000+ meters
  • Few at 1,500' AGL
  • Scattered at 10,000' AGL
  • Broken at 30,000' AGL
Temperatures Readings
Current 25°C / 77°F
Dewpoint 25°C / 77°F
Humidity 100%
Altimeter 29.82" Hg
Pressure 1010 hPa
Elevation 9
Observed Flight Rules
Oct-20 @ 12:00 UTC
(28 minutes ago)
 
VFR
Wind Visibility
Calm 10,000+ meters
Clouds
  • Few at 1,500' AGL
  • Scattered at 10,000' AGL
  • Broken at 30,000' AGL
Temperature Dewpoint
25°C / 77°F 25°C / 77°F
Humidity Altimeter Pressure
100% 29.82" Hg 1010 hPa